Time;durP1;ratioP1;P1;durP2;ratioP2;P2;SDS_P1;SDS_P2;PMS_P1;PMS_P2;Temp;Humidity;BMP_temperature;BMP_pressure;BME280_temperature;BME280_humidity;BME280_pressure;Samples;Min_cycle;Max_cycle;Signal;HPM_P1;HPM_P2
2022/10/30 00:01:43;;;;;;;2.08;1.50;;;16.60;99.90;;;;;;4999730;28;20695;-63
2022/10/30 00:04:10;;;;;;;2.63;1.60;;;16.70;99.90;;;;;;4993315;28;20216;-62
2022/10/30 00:06:37;;;;;;;1.77;1.48;;;16.70;99.90;;;;;;5001946;28;20240;-63
2022/10/30 00:09:05;;;;;;;1.33;1.23;;;16.70;99.90;;;;;;4998175;28;20206;-64
2022/10/30 00:11:32;;;;;;;1.30;1.20;;;16.70;99.90;;;;;;5004801;28;20656;-63
2022/10/30 00:13:58;;;;;;;1.50;1.40;;;16.70;99.90;;;;;;4998510;28;20202;-63
2022/10/30 00:16:25;;;;;;;1.55;1.45;;;16.80;99.90;;;;;;4999169;28;20252;-62
2022/10/30 00:18:52;;;;;;;1.55;1.40;;;16.70;99.90;;;;;;5006830;28;20686;-63
2022/10/30 00:21:19;;;;;;;1.73;1.50;;;16.70;99.90;;;;;;5002314;28;20230;-64
2022/10/30 00:23:47;;;;;;;2.10;1.58;;;16.60;99.90;;;;;;5003163;28;20218;-63
2022/10/30 00:26:15;;;;;;;2.25;1.55;;;16.40;99.90;;;;;;4996673;28;20451;-63
2022/10/30 00:28:42;;;;;;;1.60;1.50;;;16.30;99.90;;;;;;5007022;28;20202;-64
2022/10/30 00:31:10;;;;;;;1.63;1.52;;;16.20;99.90;;;;;;4999219;28;20206;-64
2022/10/30 00:33:36;;;;;;;2.13;1.53;;;16.10;99.90;;;;;;5002708;28;20205;-63
2022/10/30 00:36:04;;;;;;;2.25;1.60;;;16.00;99.90;;;;;;5030625;23;20230;-67
2022/10/30 00:38:31;;;;;;;1.40;1.30;;;15.90;99.90;;;;;;4995140;28;20296;-63
2022/10/30 00:40:58;;;;;;;2.20;1.57;;;16.00;99.90;;;;;;4994496;28;20228;-68
2022/10/30 00:43:36;;;;;;;2.13;1.67;;;15.80;99.90;;;;;;4993963;28;20584;-68
2022/10/30 00:46:07;;;;;;;1.63;1.53;;;15.80;99.90;;;;;;5007761;28;20225;-67
2022/10/30 00:48:35;;;;;;;1.85;1.30;;;15.80;99.90;;;;;;5014380;28;20237;-68
2022/10/30 00:51:04;;;;;;;1.90;1.20;;;15.80;99.90;;;;;;5014795;28;20202;-68
2022/10/30 00:53:31;;;;;;;2.10;1.57;;;15.80;99.90;;;;;;5013713;28;20205;-67
2022/10/30 00:56:02;;;;;;;1.50;1.33;;;15.80;99.90;;;;;;5014154;28;20225;-67
2022/10/30 00:58:32;;;;;;;2.03;1.77;;;15.70;99.90;;;;;;5006998;28;20212;-69
2022/10/30 01:01:05;;;;;;;1.70;1.50;;;15.80;99.90;;;;;;5019250;28;20228;-66
2022/10/30 01:03:33;;;;;;;1.50;1.40;;;15.70;99.90;;;;;;5005657;28;20201;-67
2022/10/30 01:06:08;;;;;;;1.87;1.50;;;15.80;99.90;;;;;;5013874;28;20225;-68
2022/10/30 01:08:35;;;;;;;1.80;1.38;;;15.80;99.90;;;;;;5016395;28;20219;-66
2022/10/30 01:11:04;;;;;;;1.60;1.50;;;15.80;99.90;;;;;;5017765;28;20271;-66
2022/10/30 01:13:32;;;;;;;1.60;1.50;;;15.80;99.90;;;;;;5003242;28;20205;-67
2022/10/30 01:16:28;;;;;;;2.17;1.50;;;15.70;99.90;;;;;;5016173;28;20581;-66
2022/10/30 01:19:03;;;;;;;1.73;1.60;;;15.70;99.90;;;;;;5015889;28;20573;-67
2022/10/30 01:21:42;;;;;;;2.27;1.57;;;15.80;99.90;;;;;;5010132;28;20221;-66
2022/10/30 01:24:31;;;;;;;1.40;1.30;;;15.70;99.90;;;;;;5015157;28;20270;-68
2022/10/30 01:27:07;;;;;;;1.45;1.35;;;15.80;99.90;;;;;;5014582;28;20206;-66
2022/10/30 01:29:46;;;;;;;1.65;1.50;;;15.80;99.90;;;;;;5011089;28;20215;-67
2022/10/30 01:32:25;;;;;;;1.10;1.10;;;15.80;99.90;;;;;;5013825;28;20215;-69
2022/10/30 01:34:59;;;;;;;1.60;1.47;;;15.80;99.90;;;;;;5013249;28;20224;-67
2022/10/30 01:37:34;;;;;;;1.40;1.30;;;15.80;99.90;;;;;;5013550;28;20205;-67
2022/10/30 01:40:08;;;;;;;1.97;1.33;;;15.80;99.90;;;;;;5013453;28;20200;-64
2022/10/30 01:42:47;;;;;;;2.40;1.65;;;15.70;99.90;;;;;;5012692;28;20233;-66
2022/10/30 01:45:21;;;;;;;2.70;1.60;;;15.70;99.90;;;;;;5012296;28;20292;-67
2022/10/30 01:48:15;;;;;;;1.60;1.50;;;15.70;99.90;;;;;;5012955;28;20209;-68
2022/10/30 01:50:49;;;;;;;2.40;1.50;;;15.60;99.90;;;;;;5007316;28;20210;-69
2022/10/30 01:53:26;;;;;;;2.37;1.50;;;15.60;99.90;;;;;;5012194;28;20205;-66
2022/10/30 01:56:05;;;;;;;1.90;1.60;;;15.50;99.90;;;;;;5013060;28;20335;-66
2022/10/30 01:58:41;;;;;;;1.63;1.52;;;15.50;99.90;;;;;;5009297;28;20205;-66
2022/10/30 02:01:08;;;;;;;1.80;1.50;;;15.40;99.90;;;;;;5013066;28;20221;-67
2022/10/30 02:03:36;;;;;;;1.77;1.50;;;15.40;99.90;;;;;;5012283;28;20227;-67
2022/10/30 02:06:04;;;;;;;1.70;1.50;;;15.40;99.90;;;;;;5019613;28;20221;-67
2022/10/30 02:08:30;;;;;;;1.37;1.20;;;15.40;99.90;;;;;;5012833;28;20198;-66
2022/10/30 02:10:58;;;;;;;1.60;1.50;;;15.40;99.90;;;;;;5012748;28;20205;-68
2022/10/30 02:13:25;;;;;;;1.50;1.40;;;15.60;99.90;;;;;;5011941;28;20204;-67
2022/10/30 02:15:52;;;;;;;1.50;1.40;;;15.70;99.90;;;;;;5012490;28;20244;-68
2022/10/30 02:18:19;;;;;;;2.50;1.70;;;15.70;99.90;;;;;;5012712;28;20291;-66
2022/10/30 02:20:48;;;;;;;2.30;1.35;;;15.70;99.90;;;;;;5016404;28;20212;-68
2022/10/30 02:23:17;;;;;;;1.47;1.37;;;15.60;99.90;;;;;;5012376;28;20610;-67
2022/10/30 02:25:44;;;;;;;2.33;1.33;;;15.60;99.90;;;;;;5011491;28;20239;-66
2022/10/30 02:28:11;;;;;;;2.83;1.80;;;15.50;99.90;;;;;;5013925;28;20264;-69
2022/10/30 02:30:38;;;;;;;2.20;1.55;;;15.50;99.90;;;;;;5015204;28;20739;-68
2022/10/30 02:33:05;;;;;;;1.73;1.60;;;15.50;99.90;;;;;;5011799;28;20216;-67
2022/10/30 02:35:34;;;;;;;1.60;1.47;;;15.40;99.90;;;;;;5012309;28;20587;-66
2022/10/30 02:38:02;;;;;;;1.60;1.50;;;15.40;99.90;;;;;;5012352;28;20304;-64
2022/10/30 02:40:29;;;;;;;1.92;1.45;;;15.30;99.90;;;;;;5012141;28;20291;-68
2022/10/30 02:42:56;;;;;;;1.40;1.30;;;15.30;99.90;;;;;;5011470;28;20228;-68
2022/10/30 02:45:23;;;;;;;2.07;1.30;;;15.20;99.90;;;;;;5012451;28;20257;-67
2022/10/30 02:47:50;;;;;;;2.28;1.35;;;15.20;99.90;;;;;;5009136;28;20721;-65
2022/10/30 02:50:17;;;;;;;1.20;1.10;;;15.20;99.90;;;;;;5011808;28;20205;-68
2022/10/30 02:52:43;;;;;;;1.33;1.23;;;15.20;99.90;;;;;;5018939;28;20207;-68
2022/10/30 02:55:12;;;;;;;1.50;1.40;;;15.30;99.90;;;;;;5012075;28;20232;-65
2022/10/30 02:57:38;;;;;;;1.63;1.33;;;15.30;99.90;;;;;;5012165;28;20209;-68
2022/10/30 03:00:06;;;;;;;1.43;1.33;;;15.40;99.90;;;;;;5012376;28;20559;-68
2022/10/30 03:02:33;;;;;;;1.35;1.30;;;15.30;99.90;;;;;;5011208;28;20688;-68
2022/10/30 03:05:00;;;;;;;1.40;1.30;;;15.40;99.90;;;;;;5011796;28;20312;-66
2022/10/30 03:07:27;;;;;;;1.57;1.47;;;15.40;99.90;;;;;;5011716;28;20670;-68
2022/10/30 03:09:54;;;;;;;1.33;1.23;;;15.40;99.90;;;;;;5012229;28;20205;-68
2022/10/30 03:12:22;;;;;;;1.48;1.38;;;15.40;99.90;;;;;;5010661;28;20208;-66
2022/10/30 03:14:49;;;;;;;1.80;1.67;;;15.60;99.90;;;;;;5011882;28;20284;-68
2022/10/30 03:17:16;;;;;;;1.27;1.17;;;15.40;99.90;;;;;;5012796;28;20236;-67
2022/10/30 03:19:43;;;;;;;2.03;1.45;;;15.50;99.90;;;;;;5013604;28;20209;-67
2022/10/30 03:22:10;;;;;;;1.50;1.23;;;15.60;99.90;;;;;;5011693;28;20233;-66
2022/10/30 03:24:37;;;;;;;2.30;1.40;;;15.60;99.90;;;;;;5013352;28;20211;-67
2022/10/30 03:27:04;;;;;;;1.75;1.33;;;15.60;99.90;;;;;;5012420;28;20206;-67
2022/10/30 03:29:32;;;;;;;1.63;1.37;;;15.60;99.90;;;;;;5015109;28;20201;-67
2022/10/30 03:31:59;;;;;;;1.42;1.27;;;15.60;99.90;;;;;;5013128;28;20197;-68
2022/10/30 03:34:27;;;;;;;2.03;1.25;;;15.60;99.90;;;;;;5011897;28;20231;-67
2022/10/30 03:36:54;;;;;;;1.83;1.20;;;15.60;99.90;;;;;;5012760;28;20233;-66
2022/10/30 03:39:20;;;;;;;1.27;1.17;;;15.60;99.90;;;;;;5012743;28;20209;-67
2022/10/30 03:41:47;;;;;;;2.15;1.20;;;15.80;99.90;;;;;;5016209;28;20229;-66
2022/10/30 03:44:14;;;;;;;1.35;1.25;;;15.80;99.90;;;;;;5015148;28;20205;-67
2022/10/30 03:46:42;;;;;;;1.40;1.30;;;15.70;99.90;;;;;;5015552;28;20231;-68
2022/10/30 03:49:09;;;;;;;1.33;1.20;;;15.70;99.90;;;;;;5015682;28;20209;-64
2022/10/30 03:51:36;;;;;;;1.37;1.20;;;15.60;99.90;;;;;;5015533;28;20201;-67
2022/10/30 03:54:03;;;;;;;1.57;1.10;;;15.50;99.90;;;;;;5014537;28;20209;-68
2022/10/30 03:56:30;;;;;;;1.03;1.03;;;15.50;99.90;;;;;;5015637;28;20229;-67
2022/10/30 03:58:56;;;;;;;1.43;1.33;;;15.30;99.90;;;;;;5015006;28;20746;-67
2022/10/30 04:01:23;;;;;;;2.10;1.27;;;15.20;99.90;;;;;;5016256;28;20225;-67
2022/10/30 04:03:51;;;;;;;2.00;1.40;;;15.20;99.90;;;;;;5015624;28;20205;-68
2022/10/30 04:06:18;;;;;;;1.20;1.10;;;15.20;99.90;;;;;;5016217;28;20225;-67
2022/10/30 04:08:45;;;;;;;1.30;1.20;;;15.30;99.90;;;;;;5015534;28;20219;-67
2022/10/30 04:11:12;;;;;;;1.23;1.13;;;15.30;99.90;;;;;;5016327;28;20283;-66
2022/10/30 04:13:38;;;;;;;2.13;1.37;;;15.20;99.90;;;;;;5020772;28;20205;-67
2022/10/30 04:16:06;;;;;;;1.20;1.10;;;15.30;99.90;;;;;;5014960;28;20835;-67
2022/10/30 04:18:33;;;;;;;1.57;1.27;;;15.30;99.90;;;;;;5014998;28;20201;-67
2022/10/30 04:21:01;;;;;;;1.63;1.40;;;15.30;99.90;;;;;;5014884;28;20205;-68
2022/10/30 04:23:28;;;;;;;1.23;1.13;;;15.30;99.90;;;;;;5010653;28;20225;-67
2022/10/30 04:25:55;;;;;;;1.20;1.10;;;15.20;99.90;;;;;;5014991;28;20221;-67
2022/10/30 04:28:21;;;;;;;1.20;1.10;;;15.20;99.90;;;;;;5015348;28;21572;-68
2022/10/30 04:30:48;;;;;;;1.13;1.08;;;15.20;99.90;;;;;;5020287;28;20301;-67
2022/10/30 04:33:15;;;;;;;1.57;1.43;;;15.10;99.90;;;;;;5016397;28;20205;-68
2022/10/30 04:35:43;;;;;;;1.35;1.25;;;15.10;99.90;;;;;;5014332;28;20237;-67
2022/10/30 04:38:13;;;;;;;1.33;1.23;;;15.10;99.90;;;;;;5014673;28;20201;-67
2022/10/30 04:40:41;;;;;;;1.23;0.98;;;15.20;99.90;;;;;;5014692;28;20210;-68
2022/10/30 04:43:09;;;;;;;0.90;0.90;;;15.20;99.90;;;;;;5013504;28;20303;-68
2022/10/30 04:45:37;;;;;;;1.20;1.10;;;15.30;99.90;;;;;;5014387;28;20225;-67
2022/10/30 04:48:06;;;;;;;1.98;1.20;;;15.10;99.90;;;;;;5014518;28;20655;-69
2022/10/30 04:50:34;;;;;;;1.08;1.00;;;15.10;99.90;;;;;;5014598;28;20289;-67
2022/10/30 04:53:02;;;;;;;0.98;0.98;;;15.10;99.90;;;;;;5014339;28;20252;-64
2022/10/30 04:55:31;;;;;;;1.30;1.02;;;15.10;99.90;;;;;;5007229;28;20611;-65
2022/10/30 04:57:59;;;;;;;2.00;1.48;;;15.10;99.90;;;;;;5014900;28;20585;-69
2022/10/30 05:00:26;;;;;;;1.30;1.10;;;15.10;99.90;;;;;;5014837;28;20256;-67
2022/10/30 05:02:53;;;;;;;1.10;1.10;;;15.20;99.90;;;;;;5013691;28;20227;-68
2022/10/30 05:05:20;;;;;;;1.60;1.10;;;15.10;99.90;;;;;;5019336;28;20220;-68
2022/10/30 05:07:47;;;;;;;1.30;1.20;;;15.00;99.90;;;;;;5014839;28;20716;-67
2022/10/30 05:10:15;;;;;;;1.10;1.00;;;15.00;99.90;;;;;;5015348;28;20197;-69
2022/10/30 05:12:45;;;;;;;1.30;1.10;;;15.00;99.90;;;;;;5013818;28;20206;-67
2022/10/30 05:15:12;;;;;;;1.10;1.00;;;14.90;99.90;;;;;;5014316;28;20711;-66
2022/10/30 05:17:40;;;;;;;1.35;1.20;;;15.00;99.90;;;;;;5014252;28;20221;-67
2022/10/30 05:20:08;;;;;;;1.67;1.20;;;14.90;99.90;;;;;;5014437;28;20209;-68
2022/10/30 05:22:35;;;;;;;1.27;1.00;;;14.90;99.90;;;;;;5013826;28;20229;-67
2022/10/30 05:25:01;;;;;;;1.03;1.03;;;14.90;99.90;;;;;;5021952;28;20559;-68
2022/10/30 05:27:28;;;;;;;0.90;0.73;;;14.90;99.90;;;;;;5010118;28;20216;-68
2022/10/30 05:29:56;;;;;;;1.20;1.10;;;14.90;99.90;;;;;;5018167;28;20209;-68
2022/10/30 05:32:23;;;;;;;1.20;1.10;;;14.90;99.90;;;;;;5015615;28;20660;-67
2022/10/30 05:34:50;;;;;;;1.73;1.10;;;14.90;99.90;;;;;;5017522;28;20208;-66
2022/10/30 05:37:17;;;;;;;0.90;0.90;;;14.90;99.90;;;;;;5016189;28;20659;-67
2022/10/30 05:39:43;;;;;;;1.27;1.10;;;14.90;99.90;;;;;;5018046;28;20290;-69
2022/10/30 05:42:10;;;;;;;1.17;1.10;;;14.90;99.90;;;;;;5014331;28;20624;-67
2022/10/30 05:44:37;;;;;;;3.00;1.23;;;14.80;99.90;;;;;;5017069;28;20205;-68
2022/10/30 05:47:05;;;;;;;0.90;0.90;;;14.80;99.90;;;;;;5018708;28;20202;-68
2022/10/30 05:49:32;;;;;;;1.10;1.00;;;14.80;99.90;;;;;;5021709;28;20269;-65
2022/10/30 05:51:59;;;;;;;1.08;1.00;;;14.80;99.90;;;;;;5024282;28;20265;-68
2022/10/30 05:54:26;;;;;;;0.77;0.77;;;14.80;99.90;;;;;;5026405;28;20205;-67
2022/10/30 05:56:52;;;;;;;0.85;0.85;;;14.80;99.90;;;;;;5018894;28;20773;-69
2022/10/30 05:59:19;;;;;;;0.93;0.93;;;14.70;99.90;;;;;;5013776;28;20273;-67
2022/10/30 06:01:46;;;;;;;1.50;1.10;;;14.70;99.90;;;;;;5012891;28;20205;-67
2022/10/30 06:04:14;;;;;;;1.27;0.98;;;14.70;99.90;;;;;;5011954;28;20578;-65
2022/10/30 06:06:41;;;;;;;0.90;0.90;;;14.70;99.90;;;;;;5012904;28;20228;-67
2022/10/30 06:09:08;;;;;;;1.15;1.05;;;14.60;99.90;;;;;;5012972;28;20208;-68
2022/10/30 06:11:35;;;;;;;1.48;1.38;;;14.60;99.90;;;;;;5013048;28;20217;-67
2022/10/30 06:14:02;;;;;;;0.95;0.95;;;14.60;99.90;;;;;;5011775;28;20208;-64
2022/10/30 06:16:28;;;;;;;1.40;1.10;;;14.50;99.90;;;;;;5009636;28;20221;-69
2022/10/30 06:18:55;;;;;;;1.17;1.08;;;14.50;99.90;;;;;;5013221;28;20220;-65
2022/10/30 06:21:23;;;;;;;0.80;0.80;;;14.50;99.90;;;;;;5013025;28;20215;-67
2022/10/30 06:23:50;;;;;;;0.90;0.90;;;14.40;99.90;;;;;;5012230;28;20593;-67
2022/10/30 06:26:17;;;;;;;1.10;1.10;;;14.40;99.90;;;;;;5012707;28;20225;-67
2022/10/30 06:28:44;;;;;;;1.20;1.10;;;14.40;99.90;;;;;;5012603;28;20227;-67
2022/10/30 06:31:11;;;;;;;1.17;0.90;;;14.40;99.90;;;;;;5012831;28;20205;-66
2022/10/30 06:33:37;;;;;;;0.70;0.70;;;14.40;99.90;;;;;;5011867;28;20211;-68
2022/10/30 06:36:05;;;;;;;0.90;0.90;;;14.40;99.90;;;;;;5012391;28;20225;-67
2022/10/30 06:38:33;;;;;;;1.05;0.98;;;14.40;99.90;;;;;;5012498;28;20201;-68
2022/10/30 06:41:00;;;;;;;1.20;0.90;;;14.40;99.90;;;;;;5012643;28;20201;-68
2022/10/30 06:43:26;;;;;;;1.05;0.95;;;14.40;99.90;;;;;;5006783;28;20235;-68
2022/10/30 06:45:53;;;;;;;0.90;0.90;;;14.40;99.90;;;;;;5019401;28;20316;-68
2022/10/30 06:48:20;;;;;;;0.80;0.80;;;14.40;99.90;;;;;;5012351;28;20288;-65
2022/10/30 06:50:47;;;;;;;1.67;1.20;;;14.40;99.90;;;;;;5012313;28;20292;-68
2022/10/30 06:53:14;;;;;;;0.93;0.93;;;14.40;99.90;;;;;;5010994;28;20204;-67
2022/10/30 06:55:42;;;;;;;0.90;0.90;;;14.50;99.90;;;;;;5012032;28;20225;-60
2022/10/30 06:58:08;;;;;;;0.77;0.77;;;14.50;99.90;;;;;;5012177;28;20543;-61
2022/10/30 07:00:35;;;;;;;1.10;1.10;;;15.20;99.90;;;;;;5012882;28;20213;-58
2022/10/30 07:03:03;;;;;;;0.80;0.80;;;15.90;99.90;;;;;;5012682;28;20225;-60
2022/10/30 07:05:30;;;;;;;1.07;1.00;;;16.10;99.90;;;;;;5013219;28;20235;-59
2022/10/30 07:07:57;;;;;;;1.13;1.03;;;16.40;99.90;;;;;;5013361;28;20212;-59
2022/10/30 07:10:24;;;;;;;0.93;0.93;;;16.60;99.90;;;;;;5016434;28;20581;-60
2022/10/30 07:12:54;;;;;;;1.23;1.00;;;16.80;99.90;;;;;;5012085;28;20232;-59
2022/10/30 07:15:21;;;;;;;1.40;1.27;;;16.80;99.90;;;;;;5011260;28;20225;-59
2022/10/30 07:17:55;;;;;;;0.90;0.90;;;16.90;99.90;;;;;;5012345;28;20205;-59
2022/10/30 07:20:23;;;;;;;1.05;1.02;;;16.90;99.90;;;;;;5011679;28;20693;-59
2022/10/30 07:22:49;;;;;;;1.25;0.90;;;16.90;99.90;;;;;;5010962;28;20224;-60
2022/10/30 07:25:17;;;;;;;1.33;0.80;;;17.00;99.90;;;;;;5011728;28;20235;-59
2022/10/30 07:27:44;;;;;;;1.00;0.95;;;17.00;99.90;;;;;;5011454;28;20219;-60
2022/10/30 07:30:14;;;;;;;1.33;1.23;;;17.10;99.90;;;;;;5011719;28;20292;-60
2022/10/30 07:32:41;;;;;;;0.95;0.80;;;17.10;99.90;;;;;;5010260;28;20205;-60
2022/10/30 07:35:09;;;;;;;1.10;0.80;;;17.20;99.90;;;;;;5011128;28;20237;-59
2022/10/30 07:37:36;;;;;;;1.00;1.00;;;17.30;99.90;;;;;;5011337;28;20208;-63
2022/10/30 07:40:03;;;;;;;1.05;1.00;;;17.30;99.90;;;;;;5010975;28;20207;-61
2022/10/30 07:42:30;;;;;;;1.00;1.00;;;17.30;99.90;;;;;;5011860;28;20235;-60
2022/10/30 07:44:56;;;;;;;0.80;0.80;;;17.30;99.90;;;;;;5011646;28;20232;-60
2022/10/30 07:47:25;;;;;;;1.38;1.10;;;17.50;99.90;;;;;;5011970;28;20659;-59
2022/10/30 07:49:51;;;;;;;0.80;0.80;;;17.60;99.90;;;;;;5011462;28;20703;-61
2022/10/30 07:52:18;;;;;;;2.40;1.25;;;17.50;99.90;;;;;;5012737;28;20213;-61
2022/10/30 07:54:45;;;;;;;1.10;1.05;;;17.70;99.90;;;;;;5012321;28;20209;-61
2022/10/30 07:57:12;;;;;;;1.53;1.00;;;17.70;99.90;;;;;;5013476;28;20201;-60
2022/10/30 07:59:38;;;;;;;1.60;0.98;;;17.80;99.90;;;;;;5012407;28;20201;-60
2022/10/30 08:02:06;;;;;;;1.10;1.10;;;17.80;99.90;;;;;;5010643;28;20201;-67
2022/10/30 08:04:34;;;;;;;0.80;0.80;;;17.70;99.90;;;;;;5010560;28;20217;-67
2022/10/30 08:07:01;;;;;;;1.00;1.00;;;17.50;99.90;;;;;;5008886;28;20205;-67
2022/10/30 08:09:28;;;;;;;1.00;1.00;;;17.30;99.90;;;;;;5011173;28;20205;-68
2022/10/30 08:11:54;;;;;;;2.28;0.90;;;17.20;99.90;;;;;;5009502;28;20316;-65
2022/10/30 08:14:21;;;;;;;0.90;0.90;;;17.10;99.90;;;;;;5009575;28;20202;-68
2022/10/30 08:16:48;;;;;;;1.00;1.00;;;17.10;99.90;;;;;;5010993;28;20221;-69
2022/10/30 08:19:15;;;;;;;1.65;1.00;;;17.20;99.90;;;;;;5010260;28;20219;-66
2022/10/30 08:21:43;;;;;;;0.95;0.93;;;17.30;99.90;;;;;;5010559;28;20201;-68
2022/10/30 08:24:10;;;;;;;1.20;1.10;;;17.40;99.90;;;;;;5009279;28;20565;-68
2022/10/30 08:26:37;;;;;;;0.95;0.95;;;17.50;99.90;;;;;;5012219;28;20229;-66
2022/10/30 08:29:03;;;;;;;0.70;0.70;;;17.70;99.90;;;;;;4998579;28;20288;-69
2022/10/30 08:31:30;;;;;;;3.35;1.30;;;17.80;99.90;;;;;;5000395;28;20220;-68
2022/10/30 08:33:57;;;;;;;2.50;1.00;;;18.00;99.90;;;;;;5005272;28;20208;-68
2022/10/30 08:36:24;;;;;;;0.90;0.90;;;18.10;99.90;;;;;;4965776;28;1090463;-67
2022/10/30 08:38:52;;;;;;;0.90;0.90;;;18.30;99.90;;;;;;5001657;28;20206;-67
2022/10/30 08:41:19;;;;;;;0.80;0.80;;;18.50;99.90;;;;;;5005629;28;20211;-65
2022/10/30 08:43:46;;;;;;;2.10;1.00;;;18.60;99.90;;;;;;5013390;28;20252;-69
2022/10/30 08:46:13;;;;;;;1.10;1.00;;;18.80;99.90;;;;;;5014179;28;20221;-68
2022/10/30 08:48:39;;;;;;;0.90;0.90;;;18.90;99.90;;;;;;5010744;28;20216;-66
2022/10/30 08:51:06;;;;;;;0.90;0.90;;;18.80;99.90;;;;;;5002088;28;20218;-68
2022/10/30 08:53:33;;;;;;;0.65;0.65;;;18.80;99.90;;;;;;5004228;28;20881;-65
2022/10/30 08:56:01;;;;;;;0.90;0.90;;;18.70;99.90;;;;;;4999871;28;20249;-68
2022/10/30 08:58:28;;;;;;;0.83;0.83;;;18.80;99.90;;;;;;5001882;28;20308;-68
2022/10/30 09:00:55;;;;;;;0.80;0.80;;;18.90;99.90;;;;;;4999797;28;20572;-68
2022/10/30 09:03:22;;;;;;;0.87;0.87;;;19.00;99.90;;;;;;4999658;28;20230;-66
2022/10/30 09:05:49;;;;;;;1.02;1.02;;;19.10;99.90;;;;;;4999535;28;20726;-66
2022/10/30 09:08:16;;;;;;;0.70;0.70;;;19.20;99.90;;;;;;4998170;28;20229;-67
2022/10/30 09:10:42;;;;;;;1.02;0.80;;;19.20;99.90;;;;;;4999097;28;20210;-67
2022/10/30 09:13:11;;;;;;;1.00;1.00;;;19.40;99.90;;;;;;5000891;28;20276;-67
2022/10/30 09:15:37;;;;;;;0.90;0.90;;;19.50;99.90;;;;;;5001557;28;20232;-68
2022/10/30 09:18:05;;;;;;;1.10;1.10;;;19.70;99.90;;;;;;4999760;28;20649;-65
2022/10/30 09:20:32;;;;;;;1.23;1.10;;;19.80;99.90;;;;;;5009023;28;20205;-66
2022/10/30 09:22:59;;;;;;;1.08;1.05;;;20.00;99.90;;;;;;5004757;28;20211;-67
2022/10/30 09:25:25;;;;;;;1.20;1.17;;;20.00;99.90;;;;;;5003325;28;20221;-66
2022/10/30 09:27:52;;;;;;;0.95;0.95;;;20.10;99.90;;;;;;4999242;28;20320;-68
2022/10/30 09:30:21;;;;;;;1.13;1.13;;;20.20;99.90;;;;;;5000075;28;20213;-66
2022/10/30 09:32:54;;;;;;;1.00;1.00;;;20.30;99.90;;;;;;5003586;28;20213;-66
2022/10/30 09:35:21;;;;;;;1.00;1.00;;;20.20;99.90;;;;;;5004869;28;20233;-67
2022/10/30 09:37:48;;;;;;;1.02;1.02;;;20.20;99.90;;;;;;5000439;28;20206;-67
2022/10/30 09:40:22;;;;;;;0.93;0.93;;;20.30;99.90;;;;;;5007167;28;20208;-67
2022/10/30 09:42:50;;;;;;;1.25;1.10;;;20.40;99.90;;;;;;5000380;28;20615;-67
2022/10/30 09:45:48;;;;;;;1.05;0.98;;;20.40;99.90;;;;;;5002183;28;20308;-67
2022/10/30 09:48:44;;;;;;;1.58;1.20;;;20.40;99.90;;;;;;4980719;28;20213;-65
2022/10/30 09:51:27;;;;;;;1.20;1.10;;;20.40;99.90;;;;;;4997175;28;20206;-65
2022/10/30 09:54:05;;;;;;;1.90;1.30;;;20.40;99.90;;;;;;4997099;28;20200;-68
2022/10/30 09:56:36;;;;;;;1.17;1.15;;;20.40;99.90;;;;;;5003210;28;20217;-67
2022/10/30 09:59:15;;;;;;;1.10;1.10;;;20.60;99.90;;;;;;5013636;28;20202;-66
2022/10/30 10:01:51;;;;;;;1.52;1.30;;;20.60;99.90;;;;;;5008522;28;20297;-67
2022/10/30 10:04:25;;;;;;;1.08;1.05;;;20.70;99.90;;;;;;5012893;28;20228;-66
2022/10/30 10:06:56;;;;;;;1.60;1.30;;;20.60;99.90;;;;;;5006876;28;20221;-65
2022/10/30 10:09:26;;;;;;;1.30;1.15;;;20.70;99.90;;;;;;5008417;28;20624;-66
2022/10/30 10:11:56;;;;;;;1.45;1.30;;;20.70;99.90;;;;;;5009300;28;20229;-67
2022/10/30 10:14:28;;;;;;;1.38;1.27;;;20.80;99.90;;;;;;5004005;28;20212;-66
2022/10/30 10:16:57;;;;;;;1.50;1.20;;;20.90;99.90;;;;;;5000488;28;20229;-65
2022/10/30 10:19:32;;;;;;;0.98;0.98;;;20.90;99.90;;;;;;5005299;28;20596;-67
2022/10/30 10:22:00;;;;;;;1.33;1.17;;;21.00;99.90;;;;;;5005854;28;20201;-65
2022/10/30 10:24:29;;;;;;;1.10;1.00;;;21.10;99.90;;;;;;4997474;28;20755;-67
2022/10/30 10:27:00;;;;;;;1.23;1.20;;;21.20;99.90;;;;;;5000314;28;20229;-66
2022/10/30 10:29:34;;;;;;;0.98;0.98;;;21.20;99.90;;;;;;4997911;28;20205;-66
2022/10/30 10:32:25;;;;;;;1.52;1.42;;;21.20;99.90;;;;;;5001511;28;20208;-65
2022/10/30 10:35:08;;;;;;;0.95;0.95;;;21.30;99.90;;;;;;4996507;28;20223;-67
2022/10/30 10:37:41;;;;;;;2.10;1.20;;;21.40;99.90;;;;;;4999795;28;20297;-68
2022/10/30 10:40:28;;;;;;;1.77;1.20;;;21.40;99.90;;;;;;4999355;28;20281;-69
2022/10/30 10:43:08;;;;;;;1.92;1.27;;;21.40;99.90;;;;;;5009809;28;20287;-65
2022/10/30 10:45:43;;;;;;;1.48;1.38;;;21.50;99.90;;;;;;5010082;28;20217;-67
2022/10/30 10:48:27;;;;;;;1.40;1.30;;;21.50;99.90;;;;;;5006629;28;20288;-68
2022/10/30 10:51:01;;;;;;;1.08;1.08;;;21.60;99.90;;;;;;5011383;28;20212;-67
2022/10/30 10:53:35;;;;;;;1.50;1.40;;;21.50;99.90;;;;;;5010822;28;20209;-67
2022/10/30 10:56:02;;;;;;;1.27;1.27;;;21.50;99.90;;;;;;5011489;28;20220;-70
2022/10/30 10:58:33;;;;;;;1.40;1.30;;;21.50;99.90;;;;;;5011397;28;20205;-68
2022/10/30 11:01:00;;;;;;;2.05;1.08;;;21.60;99.90;;;;;;5009109;28;20264;-68
2022/10/30 11:03:37;;;;;;;1.73;1.27;;;21.60;99.90;;;;;;4995576;28;20220;-66
2022/10/30 11:06:19;;;;;;;1.73;1.20;;;21.60;99.90;;;;;;5001671;28;20222;-67
2022/10/30 11:08:47;;;;;;;1.20;1.10;;;21.70;99.90;;;;;;4996329;28;20206;-68
2022/10/30 11:11:14;;;;;;;1.30;1.20;;;21.70;99.90;;;;;;4994706;28;20202;-68
2022/10/30 11:13:43;;;;;;;1.25;1.15;;;21.70;99.90;;;;;;4996559;28;20206;-66
2022/10/30 11:16:18;;;;;;;1.63;1.20;;;21.70;99.90;;;;;;4996809;28;20228;-67
2022/10/30 11:18:48;;;;;;;1.30;1.20;;;21.70;99.90;;;;;;5005030;28;20250;-69
2022/10/30 11:21:19;;;;;;;1.38;1.27;;;21.70;99.90;;;;;;4999449;28;20198;-69
2022/10/30 11:23:47;;;;;;;1.30;1.25;;;21.80;99.90;;;;;;4997175;28;20218;-65
2022/10/30 11:26:32;;;;;;;1.30;1.20;;;21.80;99.90;;;;;;4993789;28;20706;-69
2022/10/30 11:29:04;;;;;;;1.47;1.33;;;21.90;99.90;;;;;;4992809;28;20537;-67
2022/10/30 11:31:36;;;;;;;1.15;1.15;;;21.80;99.90;;;;;;4995356;28;20202;-69
2022/10/30 11:34:30;;;;;;;1.38;1.30;;;21.80;99.90;;;;;;5001367;28;20641;-66
2022/10/30 11:36:57;;;;;;;1.10;1.10;;;21.90;99.90;;;;;;5002377;28;20611;-66
2022/10/30 11:39:26;;;;;;;1.58;1.33;;;21.90;99.90;;;;;;5004516;28;20237;-66
2022/10/30 11:42:03;;;;;;;1.13;1.02;;;22.00;99.90;;;;;;5007980;28;20205;-65
2022/10/30 11:44:38;;;;;;;1.70;1.35;;;22.00;99.90;;;;;;4999732;28;20272;-66
2022/10/30 11:47:06;;;;;;;1.30;1.20;;;22.00;99.90;;;;;;5002193;28;20671;-64
2022/10/30 11:49:41;;;;;;;0.95;0.95;;;22.10;99.90;;;;;;5000827;28;20210;-64
2022/10/30 11:52:09;;;;;;;1.75;1.50;;;22.10;99.90;;;;;;5001848;28;20204;-66
2022/10/30 11:54:39;;;;;;;1.20;1.20;;;22.10;99.90;;;;;;5002086;28;20237;-68
2022/10/30 11:57:20;;;;;;;2.22;1.40;;;22.10;99.90;;;;;;5007283;28;20211;-67
2022/10/30 11:59:49;;;;;;;1.02;1.02;;;22.10;99.90;;;;;;5017754;28;20194;-66
2022/10/30 12:02:22;;;;;;;1.73;1.40;;;22.00;99.90;;;;;;5018858;28;20235;-67
2022/10/30 12:04:50;;;;;;;3.28;1.42;;;22.00;99.90;;;;;;5023468;28;20227;-65
2022/10/30 12:07:24;;;;;;;1.40;1.20;;;21.90;99.90;;;;;;5016424;28;20201;-69
2022/10/30 12:09:51;;;;;;;1.30;1.20;;;22.00;99.90;;;;;;5007919;28;20202;-67
2022/10/30 12:12:24;;;;;;;1.60;1.30;;;22.00;99.90;;;;;;5010186;28;20747;-67
2022/10/30 12:14:52;;;;;;;1.23;1.13;;;21.90;99.90;;;;;;5010889;28;20529;-67
2022/10/30 12:17:20;;;;;;;1.40;1.30;;;22.00;99.90;;;;;;5016641;28;20209;-68
2022/10/30 12:19:51;;;;;;;1.17;1.17;;;22.00;99.90;;;;;;5007058;28;20302;-67
2022/10/30 12:22:31;;;;;;;1.23;1.17;;;22.00;99.90;;;;;;5011797;28;20201;-65
2022/10/30 12:25:02;;;;;;;1.67;1.20;;;22.00;99.90;;;;;;5011310;28;20237;-67
2022/10/30 12:27:31;;;;;;;1.60;1.40;;;22.00;99.90;;;;;;5010922;28;20201;-65
2022/10/30 12:30:05;;;;;;;0.93;0.93;;;22.10;99.90;;;;;;5015198;28;20209;-66
2022/10/30 12:32:40;;;;;;;1.17;1.17;;;22.20;99.90;;;;;;5008092;28;20201;-65
2022/10/30 12:35:33;;;;;;;1.10;1.10;;;22.30;99.90;;;;;;5009498;28;20232;-65
2022/10/30 12:38:03;;;;;;;2.05;1.20;;;22.30;99.90;;;;;;5008968;28;20206;-66
2022/10/30 12:40:31;;;;;;;1.30;1.05;;;22.40;99.90;;;;;;5005764;28;20197;-65
2022/10/30 12:43:02;;;;;;;2.35;0.90;;;22.50;99.90;;;;;;5001394;28;20202;-66
2022/10/30 12:45:34;;;;;;;0.93;0.93;;;22.50;99.90;;;;;;5000632;28;20225;-66
2022/10/30 12:48:07;;;;;;;1.17;1.10;;;22.50;99.90;;;;;;4998466;28;20202;-65
2022/10/30 12:50:43;;;;;;;1.00;1.00;;;22.60;99.90;;;;;;4999425;28;20210;-64
2022/10/30 12:53:29;;;;;;;1.40;1.30;;;22.60;99.90;;;;;;5001072;28;20224;-66
2022/10/30 12:55:59;;;;;;;1.20;1.15;;;22.70;99.90;;;;;;5002080;28;20218;-65
2022/10/30 12:58:37;;;;;;;1.00;1.00;;;22.70;99.90;;;;;;5002190;28;20283;-65
2022/10/30 13:01:12;;;;;;;1.45;1.10;;;22.70;99.90;;;;;;5001954;28;20244;-66